sensor_id;sensor_type;location;lat;lon;timestamp;pressure;altitude;pressure_sealevel;temperature;humidity
28000;BME280;15328;50.860;10.562;2022-08-19T00:04:55;96149.56;;;21.88;56.91
28000;BME280;15328;50.860;10.562;2022-08-19T00:09:56;96141.28;;;21.99;56.62
28000;BME280;15328;50.860;10.562;2022-08-19T00:14:56;96149.84;;;22.06;56.39
28000;BME280;15328;50.860;10.562;2022-08-19T00:19:56;96157.25;;;22.00;56.52
28000;BME280;15328;50.860;10.562;2022-08-19T00:24:57;96143.19;;;21.98;56.50
28000;BME280;15328;50.860;10.562;2022-08-19T00:29:57;96124.84;;;21.95;56.75
28000;BME280;15328;50.860;10.562;2022-08-19T00:34:58;96115.69;;;21.91;56.90
28000;BME280;15328;50.860;10.562;2022-08-19T00:39:59;96104.84;;;21.91;56.85
28000;BME280;15328;50.860;10.562;2022-08-19T00:44:59;96113.28;;;21.89;56.87
28000;BME280;15328;50.860;10.562;2022-08-19T00:50:00;96102.25;;;21.86;56.72
28000;BME280;15328;50.860;10.562;2022-08-19T00:55:01;96106.53;;;21.87;56.90
28000;BME280;15328;50.860;10.562;2022-08-19T01:00:09;96112.16;;;21.77;57.15
28000;BME280;15328;50.860;10.562;2022-08-19T01:05:17;96106.13;;;21.66;57.12
28000;BME280;15328;50.860;10.562;2022-08-19T01:10:23;96106.31;;;21.70;57.25
28000;BME280;15328;50.860;10.562;2022-08-19T01:15:31;96110.94;;;21.69;57.35
28000;BME280;15328;50.860;10.562;2022-08-19T01:20:32;96102.72;;;21.74;57.25
28000;BME280;15328;50.860;10.562;2022-08-19T01:25:51;96100.22;;;21.78;57.53
28000;BME280;15328;50.860;10.562;2022-08-19T01:30:53;96084.56;;;21.75;57.36
28000;BME280;15328;50.860;10.562;2022-08-19T01:36:10;96095.69;;;21.73;57.53
28000;BME280;15328;50.860;10.562;2022-08-19T01:41:11;96094.59;;;21.74;57.34
28000;BME280;15328;50.860;10.562;2022-08-19T01:46:12;96100.00;;;21.74;57.32
28000;BME280;15328;50.860;10.562;2022-08-19T01:51:13;96103.81;;;21.73;57.14
28000;BME280;15328;50.860;10.562;2022-08-19T01:56:13;96092.69;;;21.75;57.26
28000;BME280;15328;50.860;10.562;2022-08-19T02:01:14;96088.47;;;21.69;57.50
28000;BME280;15328;50.860;10.562;2022-08-19T02:06:14;96085.25;;;21.67;57.69
28000;BME280;15328;50.860;10.562;2022-08-19T02:11:22;96078.53;;;21.64;57.55
28000;BME280;15328;50.860;10.562;2022-08-19T02:16:24;96073.13;;;21.64;57.50
28000;BME280;15328;50.860;10.562;2022-08-19T02:21:24;96071.13;;;21.70;57.34
28000;BME280;15328;50.860;10.562;2022-08-19T02:26:25;96061.09;;;21.70;57.66
28000;BME280;15328;50.860;10.562;2022-08-19T02:31:28;96071.44;;;21.68;57.42
28000;BME280;15328;50.860;10.562;2022-08-19T02:36:30;96063.81;;;21.70;57.35
28000;BME280;15328;50.860;10.562;2022-08-19T02:41:32;96062.00;;;21.66;57.58
28000;BME280;15328;50.860;10.562;2022-08-19T02:46:33;96072.91;;;21.60;57.98
28000;BME280;15328;50.860;10.562;2022-08-19T02:51:40;96079.91;;;21.62;57.84
28000;BME280;15328;50.860;10.562;2022-08-19T02:56:42;96080.50;;;21.58;58.00
28000;BME280;15328;50.860;10.562;2022-08-19T03:01:43;96084.41;;;21.52;58.12
28000;BME280;15328;50.860;10.562;2022-08-19T03:06:45;96089.91;;;21.47;58.37
28000;BME280;15328;50.860;10.562;2022-08-19T03:11:46;96092.69;;;21.42;58.67
28000;BME280;15328;50.860;10.562;2022-08-19T03:16:49;96095.47;;;21.37;59.22
28000;BME280;15328;50.860;10.562;2022-08-19T03:21:51;96093.72;;;21.27;59.76
28000;BME280;15328;50.860;10.562;2022-08-19T03:26:53;96104.66;;;21.17;60.57
28000;BME280;15328;50.860;10.562;2022-08-19T03:32:03;96104.16;;;21.15;61.01
28000;BME280;15328;50.860;10.562;2022-08-19T03:37:07;96109.06;;;21.13;61.40
28000;BME280;15328;50.860;10.562;2022-08-19T03:42:11;96116.19;;;21.04;62.25
28000;BME280;15328;50.860;10.562;2022-08-19T03:47:11;96115.59;;;21.07;62.32
28000;BME280;15328;50.860;10.562;2022-08-19T03:52:16;96119.69;;;21.05;62.72
28000;BME280;15328;50.860;10.562;2022-08-19T03:57:16;96120.16;;;21.12;62.69
28000;BME280;15328;50.860;10.562;2022-08-19T04:02:16;96123.50;;;21.04;63.13
28000;BME280;15328;50.860;10.562;2022-08-19T04:07:17;96135.56;;;20.92;63.67
28000;BME280;15328;50.860;10.562;2022-08-19T04:12:21;96127.88;;;20.99;63.51
28000;BME280;15328;50.860;10.562;2022-08-19T04:17:21;96126.06;;;20.95;63.98
28000;BME280;15328;50.860;10.562;2022-08-19T04:22:22;96131.97;;;20.97;64.04
28000;BME280;15328;50.860;10.562;2022-08-19T04:27:22;96130.00;;;21.03;63.80
28000;BME280;15328;50.860;10.562;2022-08-19T04:32:22;96132.50;;;20.99;64.39
28000;BME280;15328;50.860;10.562;2022-08-19T04:37:23;96135.06;;;21.09;63.85
28000;BME280;15328;50.860;10.562;2022-08-19T04:42:26;96134.31;;;21.04;64.32
28000;BME280;15328;50.860;10.562;2022-08-19T04:47:40;96130.97;;;21.12;64.13
28000;BME280;15328;50.860;10.562;2022-08-19T04:52:41;96146.09;;;21.13;64.22
28000;BME280;15328;50.860;10.562;2022-08-19T04:57:44;96135.00;;;21.14;64.25
28000;BME280;15328;50.860;10.562;2022-08-19T05:02:45;96139.25;;;21.20;63.92
28000;BME280;15328;50.860;10.562;2022-08-19T05:07:45;96134.63;;;21.21;63.89
28000;BME280;15328;50.860;10.562;2022-08-19T05:12:45;96123.47;;;21.27;63.43
28000;BME280;15328;50.860;10.562;2022-08-19T05:17:46;96135.25;;;21.37;62.94
28000;BME280;15328;50.860;10.562;2022-08-19T05:23:06;96142.03;;;21.15;63.54
28000;BME280;15328;50.860;10.562;2022-08-19T05:28:06;96148.97;;;21.21;63.37
28000;BME280;15328;50.860;10.562;2022-08-19T05:33:07;96157.50;;;21.10;63.86
28000;BME280;15328;50.860;10.562;2022-08-19T05:38:12;96150.06;;;21.20;63.31
28000;BME280;15328;50.860;10.562;2022-08-19T05:43:13;96145.22;;;21.17;63.19
28000;BME280;15328;50.860;10.562;2022-08-19T05:48:15;96157.66;;;21.18;62.77
28000;BME280;15328;50.860;10.562;2022-08-19T05:53:18;96163.66;;;21.34;62.19
28000;BME280;15328;50.860;10.562;2022-08-19T05:58:18;96163.91;;;21.38;61.73
28000;BME280;15328;50.860;10.562;2022-08-19T06:03:18;96157.47;;;21.34;61.48
28000;BME280;15328;50.860;10.562;2022-08-19T06:08:19;96159.34;;;21.33;61.41
28000;BME280;15328;50.860;10.562;2022-08-19T06:13:20;96169.47;;;21.46;60.85
28000;BME280;15328;50.860;10.562;2022-08-19T06:18:21;96180.50;;;21.50;60.63
28000;BME280;15328;50.860;10.562;2022-08-19T06:23:22;96188.25;;;21.56;60.06
28000;BME280;15328;50.860;10.562;2022-08-19T06:28:22;96193.34;;;21.58;59.61
28000;BME280;15328;50.860;10.562;2022-08-19T06:33:24;96205.19;;;21.62;59.68
28000;BME280;15328;50.860;10.562;2022-08-19T06:38:24;96206.16;;;21.71;59.18
28000;BME280;15328;50.860;10.562;2022-08-19T06:43:25;96215.47;;;21.65;59.07
28000;BME280;15328;50.860;10.562;2022-08-19T06:48:25;96219.31;;;21.78;58.62
28000;BME280;15328;50.860;10.562;2022-08-19T06:53:26;96232.94;;;21.73;58.49
28000;BME280;15328;50.860;10.562;2022-08-19T06:58:31;96235.06;;;21.76;57.84
28000;BME280;15328;50.860;10.562;2022-08-19T07:03:34;96249.84;;;21.65;57.27
28000;BME280;15328;50.860;10.562;2022-08-19T07:08:35;96247.63;;;21.48;57.65
28000;BME280;15328;50.860;10.562;2022-08-19T07:13:37;96242.13;;;21.34;57.84
28000;BME280;15328;50.860;10.562;2022-08-19T07:18:38;96243.53;;;21.50;57.49
28000;BME280;15328;50.860;10.562;2022-08-19T07:23:39;96238.78;;;21.61;57.09
28000;BME280;15328;50.860;10.562;2022-08-19T07:28:39;96249.25;;;21.49;57.66
28000;BME280;15328;50.860;10.562;2022-08-19T07:33:41;96250.88;;;21.69;57.35
28000;BME280;15328;50.860;10.562;2022-08-19T07:38:44;96252.31;;;21.80;57.42
28000;BME280;15328;50.860;10.562;2022-08-19T07:43:45;96263.94;;;21.99;56.52
28000;BME280;15328;50.860;10.562;2022-08-19T07:48:46;96267.25;;;22.15;55.98
28000;BME280;15328;50.860;10.562;2022-08-19T07:53:48;96266.63;;;22.18;55.41
28000;BME280;15328;50.860;10.562;2022-08-19T07:58:52;96267.59;;;22.27;54.84
28000;BME280;15328;50.860;10.562;2022-08-19T08:03:54;96283.16;;;22.35;54.25
28000;BME280;15328;50.860;10.562;2022-08-19T08:09:14;96291.66;;;22.47;53.49
28000;BME280;15328;50.860;10.562;2022-08-19T08:14:32;96294.38;;;22.47;53.21
28000;BME280;15328;50.860;10.562;2022-08-19T08:19:33;96293.63;;;22.42;52.85
28000;BME280;15328;50.860;10.562;2022-08-19T08:24:34;96294.28;;;22.52;52.72
28000;BME280;15328;50.860;10.562;2022-08-19T08:29:36;96291.47;;;22.58;52.78
28000;BME280;15328;50.860;10.562;2022-08-19T08:34:36;96300.81;;;22.65;52.56
28000;BME280;15328;50.860;10.562;2022-08-19T08:39:37;96302.53;;;22.61;52.11
28000;BME280;15328;50.860;10.562;2022-08-19T08:44:54;96297.78;;;22.53;50.24
28000;BME280;15328;50.860;10.562;2022-08-19T08:50:18;96300.28;;;22.49;49.64
28000;BME280;15328;50.860;10.562;2022-08-19T08:55:23;96312.75;;;22.64;48.94
28000;BME280;15328;50.860;10.562;2022-08-19T09:00:37;96309.25;;;22.64;48.01
28000;BME280;15328;50.860;10.562;2022-08-19T09:05:43;96311.56;;;22.70;47.66
28000;BME280;15328;50.860;10.562;2022-08-19T09:10:51;96321.53;;;22.75;46.65
28000;BME280;15328;50.860;10.562;2022-08-19T09:15:56;96312.00;;;22.77;46.56
28000;BME280;15328;50.860;10.562;2022-08-19T09:20:58;96314.28;;;22.70;45.38
28000;BME280;15328;50.860;10.562;2022-08-19T09:25:58;96313.94;;;22.91;45.64
28000;BME280;15328;50.860;10.562;2022-08-19T09:30:59;96301.03;;;23.15;45.24
28000;BME280;15328;50.860;10.562;2022-08-19T09:36:05;96306.44;;;23.42;45.03
28000;BME280;15328;50.860;10.562;2022-08-19T09:41:11;96300.03;;;23.66;44.80
28000;BME280;15328;50.860;10.562;2022-08-19T09:46:12;96298.91;;;23.67;43.60
28000;BME280;15328;50.860;10.562;2022-08-19T09:51:15;96290.53;;;23.77;43.07
28000;BME280;15328;50.860;10.562;2022-08-19T09:56:18;96300.75;;;23.94;42.92
28000;BME280;15328;50.860;10.562;2022-08-19T10:01:24;96305.19;;;24.26;42.73
28000;BME280;15328;50.860;10.562;2022-08-19T10:06:28;96305.41;;;24.29;42.03
28000;BME280;15328;50.860;10.562;2022-08-19T10:11:32;96296.38;;;24.07;41.14
28000;BME280;15328;50.860;10.562;2022-08-19T10:16:34;96295.91;;;24.27;41.66
28000;BME280;15328;50.860;10.562;2022-08-19T10:21:35;96304.06;;;24.94;41.42
28000;BME280;15328;50.860;10.562;2022-08-19T10:26:38;96304.66;;;24.91;40.30
28000;BME280;15328;50.860;10.562;2022-08-19T10:31:39;96304.72;;;25.31;40.29
28000;BME280;15328;50.860;10.562;2022-08-19T10:36:39;96307.19;;;25.49;40.06
28000;BME280;15328;50.860;10.562;2022-08-19T10:41:40;96303.72;;;25.75;40.15
28000;BME280;15328;50.860;10.562;2022-08-19T10:46:43;96302.44;;;25.72;40.23
28000;BME280;15328;50.860;10.562;2022-08-19T10:51:45;96304.69;;;25.70;40.36
28000;BME280;15328;50.860;10.562;2022-08-19T10:57:04;96302.13;;;25.74;39.62
28000;BME280;15328;50.860;10.562;2022-08-19T11:02:07;96310.78;;;25.67;39.31
28000;BME280;15328;50.860;10.562;2022-08-19T11:07:09;96312.75;;;25.36;39.13
28000;BME280;15328;50.860;10.562;2022-08-19T11:12:12;96328.28;;;25.44;39.44
28000;BME280;15328;50.860;10.562;2022-08-19T11:17:12;96312.75;;;25.44;39.70
28000;BME280;15328;50.860;10.562;2022-08-19T11:22:13;96304.78;;;25.48;39.72
28000;BME280;15328;50.860;10.562;2022-08-19T11:27:14;96309.03;;;25.71;39.22
28000;BME280;15328;50.860;10.562;2022-08-19T11:32:14;96309.53;;;25.91;38.94
28000;BME280;15328;50.860;10.562;2022-08-19T11:37:15;96307.19;;;25.49;38.31
28000;BME280;15328;50.860;10.562;2022-08-19T11:42:17;96305.38;;;25.76;37.84
28000;BME280;15328;50.860;10.562;2022-08-19T11:47:36;96310.13;;;25.70;38.04
28000;BME280;15328;50.860;10.562;2022-08-19T11:52:36;96309.69;;;25.85;38.25
28000;BME280;15328;50.860;10.562;2022-08-19T11:57:37;96314.59;;;25.66;37.62
28000;BME280;15328;50.860;10.562;2022-08-19T12:02:38;96320.41;;;25.73;37.96
28000;BME280;15328;50.860;10.562;2022-08-19T12:07:40;96312.34;;;25.60;38.13
28000;BME280;15328;50.860;10.562;2022-08-19T12:12:41;96308.13;;;25.45;37.58
28000;BME280;15328;50.860;10.562;2022-08-19T12:17:42;96304.47;;;25.49;38.35
28000;BME280;15328;50.860;10.562;2022-08-19T12:22:43;96288.22;;;25.75;37.78
28000;BME280;15328;50.860;10.562;2022-08-19T12:27:43;96288.06;;;25.98;38.15
28000;BME280;15328;50.860;10.562;2022-08-19T12:32:45;96273.50;;;26.11;37.76
28000;BME280;15328;50.860;10.562;2022-08-19T12:37:46;96273.16;;;25.78;37.43
28000;BME280;15328;50.860;10.562;2022-08-19T12:42:47;96273.97;;;25.96;37.81
28000;BME280;15328;50.860;10.562;2022-08-19T12:47:50;96269.97;;;26.19;37.82
28000;BME280;15328;50.860;10.562;2022-08-19T12:52:52;96263.56;;;26.32;37.90
28000;BME280;15328;50.860;10.562;2022-08-19T12:57:53;96261.81;;;26.36;37.90
28000;BME280;15328;50.860;10.562;2022-08-19T13:02:54;96268.53;;;26.13;37.52
28000;BME280;15328;50.860;10.562;2022-08-19T13:07:56;96261.81;;;26.36;37.44
28000;BME280;15328;50.860;10.562;2022-08-19T13:12:57;96257.78;;;26.42;36.87
28000;BME280;15328;50.860;10.562;2022-08-19T13:17:59;96266.25;;;26.58;36.70
28000;BME280;15328;50.860;10.562;2022-08-19T13:23:00;96269.81;;;26.41;36.70
28000;BME280;15328;50.860;10.562;2022-08-19T13:28:01;96269.81;;;27.05;36.35
28000;BME280;15328;50.860;10.562;2022-08-19T13:33:01;96282.38;;;27.36;36.42
28000;BME280;15328;50.860;10.562;2022-08-19T13:38:11;96280.22;;;27.50;34.52
28000;BME280;15328;50.860;10.562;2022-08-19T13:43:13;96276.63;;;27.67;34.85
28000;BME280;15328;50.860;10.562;2022-08-19T13:48:14;96271.09;;;27.76;34.63
28000;BME280;15328;50.860;10.562;2022-08-19T13:53:15;96259.25;;;27.72;34.17
28000;BME280;15328;50.860;10.562;2022-08-19T13:58:15;96254.25;;;27.94;34.56
28000;BME280;15328;50.860;10.562;2022-08-19T14:03:16;96257.16;;;28.10;34.13
28000;BME280;15328;50.860;10.562;2022-08-19T14:08:16;96257.25;;;28.22;34.62
28000;BME280;15328;50.860;10.562;2022-08-19T14:13:19;96264.03;;;28.16;34.04
28000;BME280;15328;50.860;10.562;2022-08-19T14:18:20;96266.06;;;28.28;34.44
28000;BME280;15328;50.860;10.562;2022-08-19T14:23:20;96264.47;;;28.27;34.14
28000;BME280;15328;50.860;10.562;2022-08-19T14:28:21;96253.63;;;28.10;33.79
28000;BME280;15328;50.860;10.562;2022-08-19T14:33:22;96260.47;;;28.24;34.50
28000;BME280;15328;50.860;10.562;2022-08-19T14:38:22;96262.31;;;28.12;34.47
28000;BME280;15328;50.860;10.562;2022-08-19T14:43:23;96261.00;;;27.97;34.42
28000;BME280;15328;50.860;10.562;2022-08-19T14:48:23;96251.25;;;27.87;34.03
28000;BME280;15328;50.860;10.562;2022-08-19T14:53:24;96251.38;;;27.91;34.61
28000;BME280;15328;50.860;10.562;2022-08-19T14:58:24;96241.78;;;27.85;34.52
28000;BME280;15328;50.860;10.562;2022-08-19T15:03:25;96241.00;;;27.55;34.51
28000;BME280;15328;50.860;10.562;2022-08-19T15:08:27;96242.78;;;27.51;34.85
28000;BME280;15328;50.860;10.562;2022-08-19T15:13:29;96243.59;;;27.51;34.99
28000;BME280;15328;50.860;10.562;2022-08-19T15:18:30;96229.69;;;27.35;34.52
28000;BME280;15328;50.860;10.562;2022-08-19T15:23:30;96226.75;;;27.20;34.18
28000;BME280;15328;50.860;10.562;2022-08-19T15:28:31;96228.69;;;27.19;34.61
28000;BME280;15328;50.860;10.562;2022-08-19T15:33:34;96219.88;;;27.14;34.27
28000;BME280;15328;50.860;10.562;2022-08-19T15:38:36;96207.66;;;27.11;34.46
28000;BME280;15328;50.860;10.562;2022-08-19T15:43:40;96204.66;;;27.04;34.21
28000;BME280;15328;50.860;10.562;2022-08-19T15:48:41;96205.47;;;26.96;33.83
28000;BME280;15328;50.860;10.562;2022-08-19T15:53:42;96214.63;;;27.00;34.38
28000;BME280;15328;50.860;10.562;2022-08-19T15:58:43;96215.09;;;27.02;33.80
28000;BME280;15328;50.860;10.562;2022-08-19T16:04:19;96225.81;;;27.07;33.68
28000;BME280;15328;50.860;10.562;2022-08-19T16:09:38;96221.63;;;27.09;33.85
28000;BME280;15328;50.860;10.562;2022-08-19T16:14:38;96240.47;;;27.02;33.93
28000;BME280;15328;50.860;10.562;2022-08-19T16:19:38;96237.63;;;26.82;33.45
28000;BME280;15328;50.860;10.562;2022-08-19T16:24:40;96237.63;;;26.82;34.07
28000;BME280;15328;50.860;10.562;2022-08-19T16:29:40;96240.72;;;26.71;33.79
28000;BME280;15328;50.860;10.562;2022-08-19T16:34:42;96246.00;;;26.68;34.50
28000;BME280;15328;50.860;10.562;2022-08-19T16:39:42;96247.78;;;26.55;34.63
28000;BME280;15328;50.860;10.562;2022-08-19T16:44:44;96254.56;;;26.49;34.60
28000;BME280;15328;50.860;10.562;2022-08-19T16:49:44;96254.44;;;26.37;34.18
28000;BME280;15328;50.860;10.562;2022-08-19T16:54:45;96251.84;;;26.32;35.10
28000;BME280;15328;50.860;10.562;2022-08-19T16:59:46;96250.06;;;26.27;34.56
28000;BME280;15328;50.860;10.562;2022-08-19T17:04:48;96250.56;;;26.21;34.89
28000;BME280;15328;50.860;10.562;2022-08-19T17:09:50;96263.06;;;26.22;34.93
28000;BME280;15328;50.860;10.562;2022-08-19T17:14:51;96255.19;;;26.20;35.39
28000;BME280;15328;50.860;10.562;2022-08-19T17:19:51;96248.47;;;26.17;35.03
28000;BME280;15328;50.860;10.562;2022-08-19T17:24:52;96255.53;;;26.10;35.29
28000;BME280;15328;50.860;10.562;2022-08-19T17:29:53;96254.44;;;26.02;35.90
28000;BME280;15328;50.860;10.562;2022-08-19T17:34:53;96255.88;;;26.08;35.83
28000;BME280;15328;50.860;10.562;2022-08-19T17:39:53;96254.44;;;26.02;37.17
28000;BME280;15328;50.860;10.562;2022-08-19T17:44:54;96249.59;;;25.99;37.34
28000;BME280;15328;50.860;10.562;2022-08-19T17:49:58;96244.31;;;25.94;37.35
28000;BME280;15328;50.860;10.562;2022-08-19T17:54:58;96248.97;;;25.85;37.34
28000;BME280;15328;50.860;10.562;2022-08-19T17:59:59;96247.34;;;25.67;38.26
28000;BME280;15328;50.860;10.562;2022-08-19T18:04:59;96258.84;;;25.55;38.73
28000;BME280;15328;50.860;10.562;2022-08-19T18:09:59;96258.94;;;25.33;38.46
28000;BME280;15328;50.860;10.562;2022-08-19T18:15:01;96258.44;;;25.22;39.23
28000;BME280;15328;50.860;10.562;2022-08-19T18:20:09;96260.84;;;25.23;39.32
28000;BME280;15328;50.860;10.562;2022-08-19T18:30:12;96271.34;;;24.85;39.26
28000;BME280;15328;50.860;10.562;2022-08-19T18:35:16;96269.72;;;24.76;39.50
28000;BME280;15328;50.860;10.562;2022-08-19T18:40:19;96265.28;;;24.57;40.05
28000;BME280;15328;50.860;10.562;2022-08-19T18:45:40;96278.59;;;24.37;40.19
28000;BME280;15328;50.860;10.562;2022-08-19T18:51:00;96276.53;;;24.20;40.41
28000;BME280;15328;50.860;10.562;2022-08-19T18:56:01;96286.13;;;24.03;40.57
28000;BME280;15328;50.860;10.562;2022-08-19T19:01:09;96294.53;;;23.93;41.02
28000;BME280;15328;50.860;10.562;2022-08-19T19:06:13;96296.78;;;23.78;40.79
28000;BME280;15328;50.860;10.562;2022-08-19T19:11:18;96313.28;;;23.67;41.30
28000;BME280;15328;50.860;10.562;2022-08-19T19:16:21;96321.34;;;23.59;41.25
28000;BME280;15328;50.860;10.562;2022-08-19T19:21:23;96317.88;;;23.53;41.40
28000;BME280;15328;50.860;10.562;2022-08-19T19:26:23;96318.81;;;23.49;41.63
28000;BME280;15328;50.860;10.562;2022-08-19T19:31:25;96318.53;;;23.36;41.92
28000;BME280;15328;50.860;10.562;2022-08-19T19:36:25;96327.56;;;23.32;42.00
28000;BME280;15328;50.860;10.562;2022-08-19T19:41:26;96343.72;;;23.23;42.26
28000;BME280;15328;50.860;10.562;2022-08-19T19:46:27;96343.03;;;23.18;42.31
28000;BME280;15328;50.860;10.562;2022-08-19T19:51:28;96348.44;;;23.18;42.92
28000;BME280;15328;50.860;10.562;2022-08-19T19:56:28;96345.34;;;23.10;42.86
28000;BME280;15328;50.860;10.562;2022-08-19T20:01:29;96353.88;;;23.04;42.70
28000;BME280;15328;50.860;10.562;2022-08-19T20:06:29;96357.09;;;23.06;42.38
28000;BME280;15328;50.860;10.562;2022-08-19T20:16:32;96360.47;;;22.98;42.63
28000;BME280;15328;50.860;10.562;2022-08-19T20:21:32;96370.91;;;22.91;42.64
28000;BME280;15328;50.860;10.562;2022-08-19T20:26:33;96373.19;;;22.84;43.04
28000;BME280;15328;50.860;10.562;2022-08-19T20:31:35;96373.72;;;22.67;43.38
28000;BME280;15328;50.860;10.562;2022-08-19T20:36:35;96377.59;;;22.61;43.24
28000;BME280;15328;50.860;10.562;2022-08-19T20:41:36;96380.09;;;22.57;43.78
28000;BME280;15328;50.860;10.562;2022-08-19T20:46:37;96374.59;;;22.62;43.52
28000;BME280;15328;50.860;10.562;2022-08-19T20:51:37;96382.44;;;22.64;43.45
28000;BME280;15328;50.860;10.562;2022-08-19T20:56:38;96378.28;;;22.52;43.44
28000;BME280;15328;50.860;10.562;2022-08-19T21:01:38;96383.72;;;22.52;43.58
28000;BME280;15328;50.860;10.562;2022-08-19T21:06:39;96380.78;;;22.49;43.27
28000;BME280;15328;50.860;10.562;2022-08-19T21:11:39;96381.59;;;22.49;43.42
28000;BME280;15328;50.860;10.562;2022-08-19T21:16:39;96372.56;;;22.54;43.53
28000;BME280;15328;50.860;10.562;2022-08-19T21:21:40;96378.94;;;22.44;43.67
28000;BME280;15328;50.860;10.562;2022-08-19T21:26:40;96380.13;;;22.38;43.59
28000;BME280;15328;50.860;10.562;2022-08-19T21:31:40;96375.50;;;22.39;43.99
28000;BME280;15328;50.860;10.562;2022-08-19T21:36:41;96373.97;;;22.33;44.00
28000;BME280;15328;50.860;10.562;2022-08-19T21:41:41;96378.16;;;22.25;43.97
28000;BME280;15328;50.860;10.562;2022-08-19T21:46:42;96380.41;;;22.18;43.90
28000;BME280;15328;50.860;10.562;2022-08-19T21:51:42;96380.16;;;22.19;43.66
28000;BME280;15328;50.860;10.562;2022-08-19T21:56:43;96390.09;;;22.24;43.50
28000;BME280;15328;50.860;10.562;2022-08-19T22:01:43;96385.28;;;22.21;43.44
28000;BME280;15328;50.860;10.562;2022-08-19T22:06:44;96380.50;;;22.13;43.31
28000;BME280;15328;50.860;10.562;2022-08-19T22:11:45;96374.34;;;22.07;43.47
28000;BME280;15328;50.860;10.562;2022-08-19T22:16:45;96366.56;;;22.01;43.80
28000;BME280;15328;50.860;10.562;2022-08-19T22:21:46;96365.53;;;21.97;44.28
28000;BME280;15328;50.860;10.562;2022-08-19T22:26:46;96367.22;;;21.93;44.14
28000;BME280;15328;50.860;10.562;2022-08-19T22:31:47;96377.94;;;21.79;44.49
28000;BME280;15328;50.860;10.562;2022-08-19T22:36:47;96375.09;;;21.70;44.42
28000;BME280;15328;50.860;10.562;2022-08-19T22:41:48;96378.19;;;21.58;44.27
28000;BME280;15328;50.860;10.562;2022-08-19T22:46:48;96376.88;;;21.56;44.47
28000;BME280;15328;50.860;10.562;2022-08-19T22:51:48;96377.44;;;21.53;44.49
28000;BME280;15328;50.860;10.562;2022-08-19T22:57:07;96386.50;;;21.43;44.84
28000;BME280;15328;50.860;10.562;2022-08-19T23:02:10;96378.97;;;21.40;44.84
28000;BME280;15328;50.860;10.562;2022-08-19T23:07:11;96378.31;;;21.48;44.03
28000;BME280;15328;50.860;10.562;2022-08-19T23:12:11;96378.03;;;21.50;43.62
28000;BME280;15328;50.860;10.562;2022-08-19T23:17:12;96367.50;;;21.48;43.91
28000;BME280;15328;50.860;10.562;2022-08-19T23:22:17;96363.19;;;21.47;43.54
28000;BME280;15328;50.860;10.562;2022-08-19T23:27:18;96359.72;;;21.42;43.30
28000;BME280;15328;50.860;10.562;2022-08-19T23:32:37;96373.47;;;21.45;43.40
28000;BME280;15328;50.860;10.562;2022-08-19T23:37:37;96373.53;;;21.40;43.47
28000;BME280;15328;50.860;10.562;2022-08-19T23:42:41;96367.31;;;21.40;43.32
28000;BME280;15328;50.860;10.562;2022-08-19T23:47:41;96369.75;;;21.41;43.18
28000;BME280;15328;50.860;10.562;2022-08-19T23:57:44;96371.16;;;21.34;43.07
